createdAt,value
2022-08-12T00:02:04.076Z,25.89
2022-08-12T00:04:26.194Z,25.83
2022-08-12T00:06:47.472Z,25.85
2022-08-12T00:09:07.570Z,25.78
2022-08-12T00:11:28.431Z,25.77
2022-08-12T00:13:48.829Z,25.74
2022-08-12T00:16:09.781Z,25.62
2022-08-12T00:18:30.098Z,25.63
2022-08-12T00:20:50.486Z,25.62
2022-08-12T00:23:10.922Z,25.62
2022-08-12T00:26:00.521Z,25.57
2022-08-12T00:28:15.363Z,25.54
2022-08-12T00:30:36.081Z,25.51
2022-08-12T00:32:57.307Z,25.52
2022-08-12T00:35:17.857Z,25.44
2022-08-12T00:37:40.780Z,25.41
2022-08-12T00:40:01.424Z,25.39
2022-08-12T00:42:11.073Z,25.37
2022-08-12T00:44:15.733Z,25.33
2022-08-12T00:46:32.854Z,25.30
2022-08-12T00:48:35.408Z,25.28
2022-08-12T00:50:40.780Z,25.22
2022-08-12T00:52:44.946Z,25.19
2022-08-12T00:54:48.230Z,25.16
2022-08-12T00:56:51.197Z,25.21
2022-08-12T00:58:54.747Z,25.20
2022-08-12T01:01:02.495Z,25.19
2022-08-12T01:03:10.944Z,25.19
2022-08-12T01:05:37.134Z,25.17
2022-08-12T01:07:59.263Z,25.15
2022-08-12T01:10:27.594Z,25.09
2022-08-12T01:12:38.293Z,25.02
2022-08-12T01:14:41.466Z,25.02
2022-08-12T01:16:43.900Z,25.00
2022-08-12T01:18:46.046Z,24.96
2022-08-12T01:20:56.539Z,24.93
2022-08-12T01:23:30.457Z,24.91
2022-08-12T01:25:41.479Z,24.88
2022-08-12T01:28:00.492Z,24.87
2022-08-12T01:30:06.706Z,24.85
2022-08-12T01:32:12.192Z,24.77
2022-08-12T01:34:35.936Z,24.76
2022-08-12T01:36:50.393Z,24.78
2022-08-12T01:38:56.493Z,24.66
2022-08-12T01:40:59.776Z,24.68
2022-08-12T01:43:11.051Z,24.65
2022-08-12T01:45:15.543Z,24.62
2022-08-12T01:47:58.312Z,24.55
2022-08-12T01:50:02.901Z,24.52
2022-08-12T01:52:15.198Z,24.43
2022-08-12T01:54:26.400Z,24.42
2022-08-12T01:56:42.542Z,24.28
2022-08-12T01:59:05.412Z,24.29
2022-08-12T02:01:11.264Z,24.27
2022-08-12T02:03:32.812Z,24.25
2022-08-12T02:06:23.695Z,24.20
2022-08-12T02:08:58.921Z,24.06
2022-08-12T02:11:26.393Z,24.08
2022-08-12T02:13:50.201Z,24.03
2022-08-12T02:16:14.032Z,24.04
2022-08-12T02:18:29.148Z,23.89
2022-08-12T02:20:51.762Z,23.98
2022-08-12T02:22:55.517Z,23.92
2022-08-12T02:25:04.842Z,23.85
2022-08-12T02:27:10.756Z,23.89
2022-08-12T02:29:14.005Z,23.87
2022-08-12T02:31:16.196Z,23.87
2022-08-12T02:33:19.779Z,23.86
2022-08-12T02:35:23.800Z,23.86
2022-08-12T02:37:28.246Z,23.86
2022-08-12T02:39:36.413Z,23.82
2022-08-12T02:41:43.376Z,23.76
2022-08-12T02:44:01.032Z,23.73
2022-08-12T02:46:14.552Z,23.71
2022-08-12T02:48:50.521Z,23.69
2022-08-12T02:50:56.959Z,23.60
2022-08-12T02:52:59.886Z,23.62
2022-08-12T02:55:34.611Z,23.61
2022-08-12T02:57:38.259Z,23.57
2022-08-12T02:59:47.746Z,23.64
2022-08-12T03:01:56.295Z,23.56
2022-08-12T03:04:02.461Z,23.53
2022-08-12T03:06:17.350Z,23.51
2022-08-12T03:08:32.015Z,23.53
2022-08-12T03:10:40.262Z,23.53
2022-08-12T03:12:51.030Z,23.56
2022-08-12T03:14:56.540Z,23.53
2022-08-12T03:17:17.274Z,23.51
2022-08-12T03:19:22.094Z,23.52
2022-08-12T03:21:56.458Z,23.49
2022-08-12T03:23:48.126Z,23.35
2022-08-12T03:25:52.666Z,23.33
2022-08-12T03:27:57.294Z,23.29
2022-08-12T03:29:59.655Z,23.25
2022-08-12T03:32:04.723Z,23.30
2022-08-12T03:34:09.612Z,23.31
2022-08-12T03:36:18.395Z,23.31
2022-08-12T03:38:28.727Z,23.32
2022-08-12T03:40:52.290Z,23.31
2022-08-12T03:43:13.127Z,23.32
2022-08-12T03:45:51.892Z,23.30
2022-08-12T03:48:32.355Z,23.25
2022-08-12T03:50:52.864Z,23.21
2022-08-12T03:53:13.059Z,23.22
2022-08-12T03:55:33.756Z,23.18
2022-08-12T03:57:54.264Z,23.15
2022-08-12T04:00:23.976Z,23.12
2022-08-12T04:02:28.459Z,23.01
2022-08-12T04:04:34.970Z,23.07
2022-08-12T04:06:45.616Z,23.04
2022-08-12T04:08:48.220Z,22.99
2022-08-12T04:11:08.758Z,22.94
2022-08-12T04:13:18.741Z,22.89
2022-08-12T04:15:23.262Z,22.89
2022-08-12T04:17:28.320Z,22.84
2022-08-12T04:19:31.090Z,22.84
2022-08-12T04:21:34.137Z,22.79
2022-08-12T04:23:38.367Z,22.84
2022-08-12T04:25:41.074Z,22.79
2022-08-12T04:27:46.301Z,22.80
2022-08-12T04:30:17.097Z,22.80
2022-08-12T04:32:11.021Z,22.87
2022-08-12T04:34:12.972Z,22.88
2022-08-12T04:36:15.311Z,22.86
2022-08-12T04:38:17.949Z,22.79
2022-08-12T04:40:27.891Z,22.85
2022-08-12T04:42:31.014Z,22.88
2022-08-12T04:44:33.061Z,22.88
2022-08-12T04:46:41.745Z,22.90
2022-08-12T04:48:43.822Z,22.92
2022-08-12T04:50:46.936Z,22.88
2022-08-12T04:52:49.696Z,22.90
2022-08-12T04:54:52.572Z,22.91
2022-08-12T04:57:04.503Z,22.92
2022-08-12T04:59:07.964Z,22.90
2022-08-12T05:01:10.777Z,22.91
2022-08-12T05:03:14.522Z,22.88
2022-08-12T05:05:23.144Z,22.87
2022-08-12T05:07:24.903Z,22.85
2022-08-12T05:09:26.667Z,22.89
2022-08-12T05:11:53.758Z,22.84
2022-08-12T05:14:01.397Z,22.87
2022-08-12T05:16:09.198Z,22.83
2022-08-12T05:18:20.342Z,22.84
2022-08-12T05:20:22.606Z,22.86
2022-08-12T05:22:25.413Z,22.83
2022-08-12T05:24:27.186Z,22.69
2022-08-12T05:26:36.394Z,22.64
2022-08-12T05:28:38.319Z,22.71
2022-08-12T05:30:41.468Z,22.77
2022-08-12T05:32:43.425Z,22.81
2022-08-12T05:34:45.988Z,22.82
2022-08-12T05:36:47.703Z,22.85
2022-08-12T05:38:58.633Z,22.91
2022-08-12T05:41:02.416Z,22.88
2022-08-12T05:43:04.319Z,22.81
2022-08-12T05:45:06.817Z,22.76
2022-08-12T05:47:08.500Z,22.85
2022-08-12T05:49:10.319Z,22.85
2022-08-12T05:51:12.458Z,22.85
2022-08-12T05:53:14.706Z,22.85
2022-08-12T05:55:17.066Z,22.79
2022-08-12T05:57:18.874Z,22.81
2022-08-12T05:59:22.007Z,22.80
2022-08-12T06:02:10.418Z,22.82
2022-08-12T06:03:47.389Z,22.83
2022-08-12T06:05:54.522Z,22.84
2022-08-12T06:08:01.386Z,22.86
2022-08-12T06:10:04.449Z,22.90
2022-08-12T06:12:06.893Z,22.90
2022-08-12T06:14:11.890Z,22.88
2022-08-12T06:16:16.400Z,22.93
2022-08-12T06:18:19.292Z,22.89
2022-08-12T06:20:29.267Z,22.92
2022-08-12T06:22:32.104Z,22.93
2022-08-12T06:24:33.818Z,22.95
2022-08-12T06:26:37.619Z,22.98
2022-08-12T06:28:40.136Z,23.00
2022-08-12T06:30:41.882Z,23.05
2022-08-12T06:32:51.593Z,23.06
2022-08-12T06:35:25.702Z,23.07
2022-08-12T06:37:25.358Z,23.12
2022-08-12T06:39:27.434Z,23.11
2022-08-12T06:42:10.843Z,23.13
2022-08-12T06:44:16.158Z,23.16
2022-08-12T06:46:17.845Z,23.16
2022-08-12T06:48:19.642Z,23.20
2022-08-12T06:50:21.403Z,23.20
2022-08-12T06:52:25.012Z,23.24
2022-08-12T06:54:31.510Z,23.28
2022-08-12T06:57:02.871Z,23.30
2022-08-12T06:58:59.298Z,23.30
2022-08-12T07:01:01.160Z,23.32
2022-08-12T07:03:22.830Z,23.38
2022-08-12T07:05:27.663Z,23.40
2022-08-12T07:07:29.357Z,23.44
2022-08-12T07:10:06.819Z,23.45
2022-08-12T07:11:53.358Z,23.54
2022-08-12T07:14:12.499Z,23.51
2022-08-12T07:16:17.849Z,23.58
2022-08-12T07:18:20.374Z,23.65
2022-08-12T07:20:50.252Z,23.67
2022-08-12T07:22:44.153Z,23.73
2022-08-12T07:25:05.900Z,23.79
2022-08-12T07:27:07.636Z,23.86
2022-08-12T07:29:09.944Z,23.90
2022-08-12T07:31:12.528Z,23.96
2022-08-12T07:33:31.328Z,24.00
2022-08-12T07:35:33.562Z,24.05
2022-08-12T07:37:41.702Z,24.13
2022-08-12T07:39:51.281Z,24.15
2022-08-12T07:42:02.455Z,24.15
2022-08-12T07:44:07.079Z,24.23
2022-08-12T07:46:12.953Z,24.27
2022-08-12T07:48:14.708Z,24.31
2022-08-12T07:50:23.438Z,24.36
2022-08-12T07:52:25.557Z,24.39
2022-08-12T07:54:27.335Z,24.38
2022-08-12T07:56:38.469Z,24.47
2022-08-12T07:58:45.256Z,24.52
2022-08-12T08:00:49.910Z,24.56
2022-08-12T08:02:54.346Z,24.59
2022-08-12T08:05:00.679Z,24.63
2022-08-12T08:07:02.407Z,24.69
2022-08-12T08:09:05.282Z,24.73
2022-08-12T08:11:25.573Z,24.76
2022-08-12T08:13:27.260Z,24.82
2022-08-12T08:16:01.253Z,24.88
2022-08-12T08:18:05.631Z,24.88
2022-08-12T08:20:10.540Z,24.96
2022-08-12T08:22:12.212Z,25.00
2022-08-12T08:24:16.767Z,25.00
2022-08-12T08:26:18.926Z,25.03
2022-08-12T08:28:21.444Z,25.11
2022-08-12T08:30:24.144Z,25.18
2022-08-12T08:32:25.973Z,25.18
2022-08-12T08:34:54.228Z,25.20
2022-08-12T08:36:52.105Z,25.26
2022-08-12T08:38:57.782Z,25.34
2022-08-12T08:42:13.871Z,25.41
2022-08-12T08:43:44.938Z,25.45
2022-08-12T08:45:48.391Z,25.51
2022-08-12T08:47:51.774Z,25.56
2022-08-12T08:49:54.797Z,25.60
2022-08-12T08:51:56.740Z,25.65
2022-08-12T08:53:58.412Z,25.69
2022-08-12T08:56:07.379Z,25.79
2022-08-12T08:58:09.757Z,25.86
2022-08-12T09:00:20.103Z,25.94
2022-08-12T09:02:21.858Z,26.04
2022-08-12T09:05:13.273Z,26.10
2022-08-12T09:12:11.870Z,26.37
2022-08-12T09:14:19.177Z,26.45
2022-08-12T09:16:41.576Z,26.55
2022-08-12T09:18:44.831Z,26.64
2022-08-12T09:20:50.914Z,26.74
2022-08-12T09:22:54.010Z,26.81
2022-08-12T09:24:55.924Z,26.92
2022-08-12T09:27:01.812Z,27.02
2022-08-12T09:29:12.354Z,27.16
2022-08-12T09:32:06.138Z,27.27
2022-08-12T09:34:25.212Z,27.42
2022-08-12T09:36:05.048Z,27.52
2022-08-12T09:38:07.938Z,27.64
2022-08-12T09:41:02.186Z,27.81
2022-08-12T09:43:17.475Z,27.97
2022-08-12T09:46:06.010Z,28.09
2022-08-12T09:47:45.621Z,28.28
2022-08-12T09:50:00.651Z,28.38
2022-08-12T09:52:02.418Z,28.54
2022-08-12T09:54:08.367Z,28.71
2022-08-12T09:56:58.633Z,28.87
2022-08-12T09:58:59.844Z,29.03
2022-08-12T10:01:06.239Z,29.17
2022-08-12T10:03:32.602Z,29.35
2022-08-12T10:06:26.883Z,29.53
2022-08-12T10:08:01.064Z,29.71
2022-08-12T10:10:04.535Z,29.86
2022-08-12T10:12:31.547Z,30.03
2022-08-12T10:14:36.154Z,30.23
2022-08-12T10:16:44.549Z,30.30
2022-08-12T10:18:53.804Z,30.46
2022-08-12T10:20:57.166Z,30.64
2022-08-12T10:23:00.239Z,30.78
2022-08-12T10:25:20.895Z,30.91
2022-08-12T10:28:05.060Z,31.06
2022-08-12T10:30:41.683Z,31.20
2022-08-12T10:32:44.605Z,31.34
2022-08-12T10:34:53.560Z,31.49
2022-08-12T10:37:22.729Z,31.63
2022-08-12T10:40:00.731Z,31.77
2022-08-12T10:42:04.484Z,31.91
2022-08-12T10:44:06.413Z,31.98
2022-08-12T10:46:17.724Z,32.01
2022-08-12T10:48:33.517Z,32.16
2022-08-12T10:50:58.277Z,32.36
2022-08-12T10:52:57.909Z,32.47
2022-08-12T10:55:00.327Z,32.62
2022-08-12T10:57:03.053Z,32.79
2022-08-12T10:59:10.867Z,32.87
2022-08-12T11:01:50.440Z,32.99
2022-08-12T11:04:35.407Z,33.16
2022-08-12T11:07:08.743Z,33.26
2022-08-12T11:08:34.142Z,33.40
2022-08-12T11:10:41.112Z,33.46
2022-08-12T11:12:58.852Z,33.55
2022-08-12T11:15:18.996Z,33.66
2022-08-12T11:17:42.880Z,33.82
2022-08-12T11:19:45.740Z,33.94
2022-08-12T11:21:56.526Z,34.03
2022-08-12T11:24:01.720Z,34.11
2022-08-12T11:26:06.218Z,34.04
2022-08-12T11:28:08.646Z,34.08
2022-08-12T11:30:31.441Z,34.25
2022-08-12T11:32:38.358Z,34.42
2022-08-12T11:34:52.776Z,34.58
2022-08-12T11:36:58.519Z,34.73
2022-08-12T11:39:04.535Z,34.72
2022-08-12T11:41:07.036Z,34.83
2022-08-12T11:43:19.333Z,34.84
2022-08-12T11:45:22.167Z,34.88
2022-08-12T11:47:24.985Z,34.84
2022-08-12T11:49:31.005Z,34.86
2022-08-12T11:51:36.525Z,34.97
2022-08-12T11:53:56.963Z,35.07
2022-08-12T11:56:00.546Z,34.93
2022-08-12T11:58:33.815Z,34.95
2022-08-12T12:02:02.095Z,34.92
2022-08-12T12:02:50.226Z,34.96
2022-08-12T12:04:53.865Z,34.93
2022-08-12T12:06:55.697Z,35.07
2022-08-12T12:08:57.362Z,35.23
2022-08-12T12:11:02.592Z,35.16
2022-08-12T12:13:11.709Z,35.33
2022-08-12T12:15:40.846Z,35.24
2022-08-12T12:17:43.049Z,35.20
2022-08-12T12:19:46.467Z,35.18
2022-08-12T12:21:49.444Z,35.26
2022-08-12T12:23:51.373Z,35.28
2022-08-12T12:26:07.602Z,35.08
2022-08-12T12:28:36.662Z,35.30
2022-08-12T12:30:33.489Z,35.48
2022-08-12T12:32:35.377Z,35.59
2022-08-12T12:34:37.211Z,35.62
2022-08-12T12:36:42.671Z,35.47
2022-08-12T12:38:46.815Z,35.68
2022-08-12T12:40:50.581Z,35.79
2022-08-12T12:43:00.371Z,35.96
2022-08-12T12:45:19.507Z,36.03
2022-08-12T12:47:29.901Z,35.69
2022-08-12T12:49:31.817Z,35.84
2022-08-12T12:51:48.807Z,35.67
2022-08-12T12:54:06.490Z,35.76
2022-08-12T12:56:34.680Z,35.84
2022-08-12T12:58:37.318Z,35.87
2022-08-12T13:00:50.982Z,35.85
2022-08-12T13:02:57.940Z,35.95
2022-08-12T13:05:00.205Z,35.93
2022-08-12T13:07:02.003Z,35.93
2022-08-12T13:09:12.921Z,35.65
2022-08-12T13:11:15.000Z,35.64
2022-08-12T13:14:06.867Z,35.62
2022-08-12T13:15:43.824Z,35.58
2022-08-12T13:18:02.899Z,35.73
2022-08-12T13:20:06.809Z,35.72
2022-08-12T13:22:19.053Z,35.94
2022-08-12T13:24:21.564Z,36.09
2022-08-12T13:26:23.723Z,36.26
2022-08-12T13:28:30.156Z,36.48
2022-08-12T13:30:31.937Z,36.51
2022-08-12T13:32:33.610Z,36.52
2022-08-12T13:34:37.106Z,36.39
2022-08-12T13:36:42.376Z,36.35
2022-08-12T13:38:54.623Z,36.38
2022-08-12T13:40:58.555Z,36.14
2022-08-12T13:43:02.070Z,36.28
2022-08-12T13:45:03.943Z,36.15
2022-08-12T13:47:12.429Z,36.31
2022-08-12T13:49:54.705Z,36.25
2022-08-12T13:51:42.779Z,36.23
2022-08-12T13:53:57.730Z,36.10
2022-08-12T13:56:02.377Z,36.06
2022-08-12T13:58:12.698Z,36.13
2022-08-12T14:00:15.353Z,36.19
2022-08-12T14:02:18.537Z,36.05
2022-08-12T14:04:24.224Z,36.23
2022-08-12T14:06:30.443Z,36.38
2022-08-12T14:08:34.292Z,36.62
2022-08-12T14:10:50.838Z,36.54
2022-08-12T14:12:54.872Z,36.71
2022-08-12T14:14:58.015Z,36.56
2022-08-12T14:17:05.583Z,36.58
2022-08-12T14:19:10.590Z,36.55
2022-08-12T14:21:23.719Z,36.71
2022-08-12T14:24:04.016Z,36.91
2022-08-12T14:25:51.391Z,36.62
2022-08-12T14:28:03.591Z,36.56
2022-08-12T14:30:15.604Z,36.35
2022-08-12T14:32:19.119Z,36.35
2022-08-12T14:34:28.339Z,36.41
2022-08-12T14:36:42.398Z,36.55
2022-08-12T14:38:46.268Z,36.34
2022-08-12T14:40:53.334Z,36.52
2022-08-12T14:42:55.742Z,36.49
2022-08-12T14:45:01.144Z,36.66
2022-08-12T14:47:07.469Z,36.78
2022-08-12T14:49:27.491Z,37.00
2022-08-12T14:52:55.558Z,37.10
2022-08-12T14:54:49.856Z,36.99
2022-08-12T14:56:58.751Z,36.98
2022-08-12T14:58:38.196Z,37.18
2022-08-12T15:01:12.317Z,36.88
2022-08-12T15:03:15.193Z,36.83
2022-08-12T15:06:06.272Z,36.41
2022-08-12T15:07:49.990Z,36.55
2022-08-12T15:09:54.149Z,36.48
2022-08-12T15:12:03.531Z,36.27
2022-08-12T15:14:06.041Z,36.31
2022-08-12T15:16:08.485Z,36.54
2022-08-12T15:18:15.849Z,36.14
2022-08-12T15:20:37.412Z,36.27
2022-08-12T15:22:54.182Z,36.65
2022-08-12T15:24:56.776Z,36.64
2022-08-12T15:26:58.522Z,36.58
2022-08-12T15:29:00.779Z,36.93
2022-08-12T15:31:09.608Z,36.87
2022-08-12T15:33:45.277Z,36.54
2022-08-12T15:35:52.060Z,36.32
2022-08-12T15:38:12.048Z,35.89
2022-08-12T15:40:15.534Z,36.24
2022-08-12T15:42:32.221Z,36.27
2022-08-12T15:44:42.420Z,35.98
2022-08-12T15:46:46.084Z,36.02
2022-08-12T15:48:47.859Z,36.20
2022-08-12T15:50:53.088Z,36.07
2022-08-12T15:52:58.636Z,35.89
2022-08-12T15:55:16.749Z,35.88
2022-08-12T15:57:19.805Z,35.71
2022-08-12T15:59:42.549Z,35.81
2022-08-12T16:01:48.704Z,35.69
2022-08-12T16:03:59.340Z,35.76
2022-08-12T16:06:17.122Z,35.84
2022-08-12T16:08:27.641Z,35.53
2022-08-12T16:10:31.121Z,35.51
2022-08-12T16:12:34.339Z,35.67
2022-08-12T16:14:36.066Z,35.88
2022-08-12T16:16:40.674Z,35.92
2022-08-12T16:18:44.875Z,36.02
2022-08-12T16:20:47.234Z,35.99
2022-08-12T16:22:49.183Z,36.07
2022-08-12T16:24:52.059Z,36.05
2022-08-12T16:26:55.473Z,36.13
2022-08-12T16:28:58.153Z,36.04
2022-08-12T16:31:23.132Z,36.23
2022-08-12T16:33:59.390Z,36.07
2022-08-12T16:35:58.348Z,35.93
2022-08-12T16:38:25.015Z,35.92
2022-08-12T16:40:25.061Z,35.79
2022-08-12T16:42:30.927Z,35.77
2022-08-12T16:44:36.407Z,35.64
2022-08-12T16:46:41.167Z,35.29
2022-08-12T16:48:59.706Z,35.21
2022-08-12T16:51:12.579Z,35.12
2022-08-12T16:53:19.419Z,34.71
2022-08-12T16:55:42.149Z,34.42
2022-08-12T16:57:49.450Z,34.37
2022-08-12T16:59:53.329Z,34.11
2022-08-12T17:01:56.581Z,34.07
2022-08-12T17:04:08.652Z,33.76
2022-08-12T17:06:12.887Z,33.66
2022-08-12T17:08:21.800Z,33.36
2022-08-12T17:10:36.512Z,33.40
2022-08-12T17:12:39.311Z,33.46
2022-08-12T17:14:41.499Z,33.35
2022-08-12T17:16:48.980Z,33.25
2022-08-12T17:18:59.482Z,33.22
2022-08-12T17:21:07.474Z,33.19
2022-08-12T17:23:19.354Z,33.05
2022-08-12T17:25:22.319Z,32.90
2022-08-12T17:27:34.081Z,32.91
2022-08-12T17:30:02.720Z,32.94
2022-08-12T17:32:02.998Z,32.97
2022-08-12T17:34:17.064Z,32.93
2022-08-12T17:36:19.369Z,32.77
2022-08-12T17:38:21.237Z,32.80
2022-08-12T17:40:36.253Z,32.84
2022-08-12T17:42:40.657Z,32.77
2022-08-12T17:44:43.633Z,32.82
2022-08-12T17:46:53.803Z,32.82
2022-08-12T17:48:57.980Z,32.77
2022-08-12T17:51:01.280Z,32.81
2022-08-12T17:53:04.680Z,32.67
2022-08-12T17:55:40.949Z,32.54
2022-08-12T17:57:30.649Z,32.56
2022-08-12T17:59:48.903Z,32.35
2022-08-12T18:01:51.478Z,32.39
2022-08-12T18:04:05.145Z,32.37
2022-08-12T18:06:15.783Z,32.23
2022-08-12T18:08:19.120Z,32.26
2022-08-12T18:10:43.446Z,32.22
2022-08-12T18:12:55.648Z,32.05
2022-08-12T18:15:00.678Z,32.05
2022-08-12T18:17:02.689Z,31.97
2022-08-12T18:19:04.439Z,31.83
2022-08-12T18:21:10.934Z,31.77
2022-08-12T18:23:12.684Z,31.76
2022-08-12T18:26:15.768Z,31.65
2022-08-12T18:28:15.155Z,31.60
2022-08-12T18:30:29.176Z,31.57
2022-08-12T18:32:53.583Z,31.65
2022-08-12T18:34:57.821Z,31.60
2022-08-12T18:37:39.643Z,31.51
2022-08-12T18:39:55.648Z,31.40
2022-08-12T18:41:59.434Z,31.38
2022-08-12T18:44:12.123Z,31.30
2022-08-12T18:46:17.267Z,31.35
2022-08-12T18:48:21.061Z,31.21
2022-08-12T18:50:24.440Z,31.30
2022-08-12T18:52:31.044Z,31.23
2022-08-12T18:54:53.869Z,31.18
2022-08-12T18:57:00.733Z,31.08
2022-08-12T18:59:04.588Z,31.16
2022-08-12T19:01:07.555Z,31.16
2022-08-12T19:03:38.565Z,31.15
2022-08-12T19:05:54.167Z,31.19
2022-08-12T19:08:01.023Z,31.12
2022-08-12T19:10:04.384Z,31.14
2022-08-12T19:12:30.346Z,31.12
2022-08-12T19:14:40.490Z,31.09
2022-08-12T19:16:44.776Z,31.04
2022-08-12T19:18:49.423Z,31.03
2022-08-12T19:20:51.404Z,31.00
2022-08-12T19:22:59.794Z,30.98
2022-08-12T19:26:01.477Z,30.97
2022-08-12T19:27:50.746Z,30.88
2022-08-12T19:30:06.110Z,30.77
2022-08-12T19:32:12.024Z,30.72
2022-08-12T19:34:56.283Z,30.57
2022-08-12T19:36:49.966Z,30.66
2022-08-12T19:38:57.129Z,30.58
2022-08-12T19:41:03.311Z,30.58
2022-08-12T19:43:20.309Z,30.57
2022-08-12T19:45:23.021Z,30.48
2022-08-12T19:47:25.004Z,30.39
2022-08-12T19:49:28.974Z,30.40
2022-08-12T19:51:35.978Z,30.31
2022-08-12T19:53:40.683Z,30.23
2022-08-12T19:55:59.288Z,30.23
2022-08-12T19:58:03.606Z,30.22
2022-08-12T20:00:08.038Z,30.21
2022-08-12T20:02:14.563Z,30.16
2022-08-12T20:04:19.014Z,30.07
2022-08-12T20:06:24.379Z,29.98
2022-08-12T20:08:36.229Z,30.05
2022-08-12T20:10:47.310Z,30.00
2022-08-12T20:13:18.759Z,29.88
2022-08-12T20:15:17.829Z,29.87
2022-08-12T20:17:23.709Z,29.81
2022-08-12T20:20:01.392Z,29.69
2022-08-12T20:22:08.767Z,29.71
2022-08-12T20:24:16.687Z,29.63
2022-08-12T20:26:21.531Z,29.59
2022-08-12T20:28:24.105Z,29.53
2022-08-12T20:30:37.633Z,29.54
2022-08-12T20:32:58.857Z,29.51
2022-08-12T20:35:02.670Z,29.44
2022-08-12T20:37:13.656Z,29.39
2022-08-12T20:39:49.931Z,29.41
2022-08-12T20:41:38.944Z,29.36
2022-08-12T20:43:42.229Z,29.31
2022-08-12T20:45:57.242Z,29.32
2022-08-12T20:48:04.312Z,29.17
2022-08-12T20:50:10.422Z,29.18
2022-08-12T20:52:18.372Z,29.21
2022-08-12T20:54:21.599Z,29.18
2022-08-12T20:56:33.617Z,29.07
2022-08-12T20:58:36.112Z,29.02
2022-08-12T21:00:38.511Z,29.02
2022-08-12T21:02:43.823Z,29.05
2022-08-12T21:05:16.324Z,29.04
2022-08-12T21:07:23.685Z,28.95
2022-08-12T21:09:28.675Z,28.97
2022-08-12T21:11:32.067Z,28.92
2022-08-12T21:13:39.220Z,28.83
2022-08-12T21:15:54.830Z,28.83
2022-08-12T21:18:10.557Z,28.87
2022-08-12T21:20:24.853Z,28.83
2022-08-12T21:22:33.730Z,28.69
2022-08-12T21:24:35.895Z,28.72
2022-08-12T21:26:43.834Z,28.72
2022-08-12T21:29:01.272Z,28.71
2022-08-12T21:32:35.335Z,28.69
2022-08-12T21:33:26.339Z,28.64
2022-08-12T21:35:35.845Z,28.60
2022-08-12T21:37:42.762Z,28.56
2022-08-12T21:39:56.496Z,28.57
2022-08-12T21:42:02.340Z,28.47
2022-08-12T21:44:24.272Z,28.50
2022-08-12T21:46:53.703Z,28.44
2022-08-12T21:48:57.464Z,28.40
2022-08-12T21:51:00.700Z,28.34
2022-08-12T21:53:10.456Z,28.35
2022-08-12T21:55:18.179Z,28.25
2022-08-12T21:57:22.325Z,28.26
2022-08-12T21:59:25.698Z,28.19
2022-08-12T22:01:33.626Z,28.21
2022-08-12T22:04:11.389Z,28.23
2022-08-12T22:06:31.847Z,28.12
2022-08-12T22:08:43.226Z,28.14
2022-08-12T22:10:48.878Z,28.12
2022-08-12T22:12:57.908Z,28.09
2022-08-12T22:15:03.995Z,28.12
2022-08-12T22:17:06.537Z,28.07
2022-08-12T22:19:15.289Z,28.09
2022-08-12T22:21:24.682Z,28.07
2022-08-12T22:24:04.267Z,28.00
2022-08-12T22:25:58.424Z,28.00
2022-08-12T22:28:24.584Z,27.99
2022-08-12T22:30:46.598Z,27.96
2022-08-12T22:32:50.771Z,27.96
2022-08-12T22:35:22.383Z,27.88
2022-08-12T22:37:26.472Z,27.85
2022-08-12T22:39:29.698Z,27.82
2022-08-12T22:41:56.951Z,27.74
2022-08-12T22:44:20.395Z,27.63
2022-08-12T22:46:42.864Z,27.66
2022-08-12T22:48:55.649Z,27.68
2022-08-12T22:50:59.282Z,27.62
2022-08-12T22:53:17.363Z,27.65
2022-08-12T22:55:38.404Z,27.55
2022-08-12T22:57:49.038Z,27.49
2022-08-12T22:59:57.830Z,27.39
2022-08-12T23:02:02.114Z,27.40
2022-08-12T23:04:08.067Z,27.41
2022-08-12T23:06:19.953Z,27.35
2022-08-12T23:08:29.636Z,27.22
2022-08-12T23:10:31.750Z,27.26
2022-08-12T23:12:53.805Z,27.25
2022-08-12T23:15:00.620Z,27.20
2022-08-12T23:17:04.576Z,27.16
2022-08-12T23:19:22.835Z,27.11
2022-08-12T23:21:25.931Z,27.12
2022-08-12T23:24:09.264Z,27.09
2022-08-12T23:26:04.756Z,27.08
2022-08-12T23:28:29.281Z,26.97
2022-08-12T23:30:35.152Z,27.04
2022-08-12T23:32:41.228Z,26.93
2022-08-12T23:34:47.814Z,26.94
2022-08-12T23:36:51.597Z,26.93
2022-08-12T23:38:58.493Z,26.84
2022-08-12T23:41:03.585Z,26.82
2022-08-12T23:43:06.029Z,26.85
2022-08-12T23:45:09.124Z,26.77
2022-08-12T23:47:24.169Z,26.76
2022-08-12T23:49:57.673Z,26.71
2022-08-12T23:51:51.131Z,26.69
2022-08-12T23:54:00.128Z,26.68
2022-08-12T23:56:02.481Z,26.64
2022-08-12T23:58:20.991Z,26.63
